Time;durP1;ratioP1;P1;durP2;ratioP2;P2;SDS_P1;SDS_P2;PMS_P1;PMS_P2;Temp;Humidity;BMP_temperature;BMP_pressure;BME280_temperature;BME280_humidity;BME280_pressure;Samples;Min_cycle;Max_cycle;Signal;HPM_P1;HPM_P2
2024/01/29 00:00:03;;;;;;;12.50;7.10;;;;;;;;;;5016421;28;20030;-76
2024/01/29 00:02:35;;;;;;;18.30;6.78;;;;;;;;;;5004405;28;20041;-77
2024/01/29 00:05:01;;;;;;;15.20;5.88;;;;;;;;;;5009312;28;20054;-77
2024/01/29 00:07:27;;;;;;;13.65;6.63;;;;;;;;;;5011097;28;20456;-77
2024/01/29 00:09:53;;;;;;;11.98;6.28;;;;;;;;;;5011832;28;20087;-77
2024/01/29 00:12:19;;;;;;;12.50;5.82;;;;;;;;;;4995304;28;20088;-77
2024/01/29 00:14:45;;;;;;;9.52;5.63;;;;;;;;;;5012733;28;20701;-78
2024/01/29 00:17:11;;;;;;;9.90;5.05;;;;;;;;;;5020115;28;20037;-78
2024/01/29 00:19:36;;;;;;;11.90;6.20;;;;;;;;;;5014328;28;20034;-78
2024/01/29 00:22:04;;;;;;;12.25;6.53;;;;;;;;;;5012833;28;20504;-78
2024/01/29 00:24:30;;;;;;;10.27;6.10;;;;;;;;;;5011114;28;20128;-79
2024/01/29 00:26:57;;;;;;;11.07;5.65;;;;;;;;;;5010466;28;20056;-78
2024/01/29 00:29:23;;;;;;;16.30;8.77;;;;;;;;;;5011689;28;20113;-78
2024/01/29 00:31:49;;;;;;;13.50;7.22;;;;;;;;;;5010242;28;20425;-76
2024/01/29 00:34:14;;;;;;;12.48;6.88;;;;;;;;;;5012904;28;20093;-77
2024/01/29 00:36:42;;;;;;;10.13;5.80;;;;;;;;;;5013435;28;20028;-76
2024/01/29 00:39:09;;;;;;;12.55;6.97;;;;;;;;;;5031003;28;20029;-78
2024/01/29 00:41:37;;;;;;;13.77;7.60;;;;;;;;;;5031868;28;20112;-78
2024/01/29 00:44:03;;;;;;;12.68;5.95;;;;;;;;;;5012983;28;20029;-77
2024/01/29 00:46:29;;;;;;;10.38;6.18;;;;;;;;;;5012670;28;20034;-77
2024/01/29 00:48:55;;;;;;;14.63;7.43;;;;;;;;;;5011730;28;20096;-77
2024/01/29 00:51:21;;;;;;;9.43;5.57;;;;;;;;;;5011511;28;20028;-77
2024/01/29 00:53:47;;;;;;;11.43;6.32;;;;;;;;;;5011511;28;20112;-78
2024/01/29 00:56:13;;;;;;;12.00;6.82;;;;;;;;;;4992253;28;20396;-77
2024/01/29 00:58:43;;;;;;;14.93;7.75;;;;;;;;;;5009946;28;20037;-77
2024/01/29 01:01:11;;;;;;;13.60;7.18;;;;;;;;;;5012724;28;20408;-78
2024/01/29 01:03:40;;;;;;;12.82;7.90;;;;;;;;;;5012436;28;20061;-77
2024/01/29 01:06:06;;;;;;;19.60;9.77;;;;;;;;;;5010835;28;20224;-78
2024/01/29 01:08:32;;;;;;;19.30;10.32;;;;;;;;;;4991600;28;20042;-77
2024/01/29 01:10:59;;;;;;;20.60;9.65;;;;;;;;;;4993060;28;20038;-77
2024/01/29 01:13:25;;;;;;;11.55;7.13;;;;;;;;;;5006675;28;20108;-77
2024/01/29 01:15:52;;;;;;;12.85;7.00;;;;;;;;;;5011386;28;20149;-76
2024/01/29 01:18:19;;;;;;;13.10;6.55;;;;;;;;;;5010687;28;20029;-76
2024/01/29 01:20:44;;;;;;;14.55;7.55;;;;;;;;;;5011858;28;20025;-76
2024/01/29 01:23:10;;;;;;;10.43;6.75;;;;;;;;;;4999587;28;20053;-77
2024/01/29 01:25:36;;;;;;;12.50;6.88;;;;;;;;;;5011681;28;20038;-77
2024/01/29 01:28:07;;;;;;;11.30;6.25;;;;;;;;;;4994551;28;20030;-76
2024/01/29 01:30:32;;;;;;;11.38;6.55;;;;;;;;;;5012385;28;20500;-78
2024/01/29 01:32:59;;;;;;;8.13;4.97;;;;;;;;;;5011770;28;20113;-78
2024/01/29 01:35:25;;;;;;;9.88;5.50;;;;;;;;;;5011731;28;20097;-77
2024/01/29 01:37:50;;;;;;;10.48;4.85;;;;;;;;;;5011831;28;20033;-78
2024/01/29 01:40:16;;;;;;;9.10;4.82;;;;;;;;;;5010256;28;20034;-77
2024/01/29 01:42:43;;;;;;;9.00;4.68;;;;;;;;;;5016376;28;20021;-77
2024/01/29 01:45:10;;;;;;;8.50;4.63;;;;;;;;;;5011007;28;20084;-77
2024/01/29 01:47:36;;;;;;;8.60;4.82;;;;;;;;;;5016139;28;20049;-77
2024/01/29 01:50:05;;;;;;;10.52;4.88;;;;;;;;;;5009579;28;20022;-77
2024/01/29 01:52:32;;;;;;;7.60;4.90;;;;;;;;;;5014445;28;20049;-78
2024/01/29 01:54:59;;;;;;;7.65;4.85;;;;;;;;;;5011548;28;20038;-76
2024/01/29 01:57:27;;;;;;;9.15;5.13;;;;;;;;;;5010144;28;20434;-78
2024/01/29 01:59:52;;;;;;;9.60;5.15;;;;;;;;;;5011355;28;20026;-77
2024/01/29 02:02:18;;;;;;;8.18;5.03;;;;;;;;;;5017133;28;20096;-76
2024/01/29 02:04:44;;;;;;;8.70;4.38;;;;;;;;;;5010645;28;20488;-77
2024/01/29 02:07:10;;;;;;;7.85;4.60;;;;;;;;;;5011374;28;20045;-77
2024/01/29 02:09:35;;;;;;;8.98;4.25;;;;;;;;;;5009486;28;20380;-78
2024/01/29 02:12:01;;;;;;;6.72;4.03;;;;;;;;;;5002306;28;20372;-78
2024/01/29 02:14:27;;;;;;;9.10;3.95;;;;;;;;;;5011966;28;20476;-78
2024/01/29 02:16:54;;;;;;;10.38;5.22;;;;;;;;;;5010214;28;20085;-77
2024/01/29 02:19:20;;;;;;;8.52;4.53;;;;;;;;;;5029563;28;20030;-77
2024/01/29 02:21:46;;;;;;;11.73;5.93;;;;;;;;;;5030886;28;20497;-78
2024/01/29 02:24:14;;;;;;;13.30;5.05;;;;;;;;;;5030878;28;20038;-78
2024/01/29 02:26:39;;;;;;;13.18;5.45;;;;;;;;;;5031176;28;20109;-78
2024/01/29 02:29:05;;;;;;;9.27;4.97;;;;;;;;;;5029699;28;20232;-77
2024/01/29 02:31:32;;;;;;;7.97;4.50;;;;;;;;;;5031379;28;20045;-79
2024/01/29 02:33:58;;;;;;;6.72;4.32;;;;;;;;;;5030694;28;20391;-77
2024/01/29 02:36:24;;;;;;;8.10;4.80;;;;;;;;;;5030048;28;20068;-79
2024/01/29 02:38:50;;;;;;;7.50;4.40;;;;;;;;;;5031091;28;20421;-78
2024/01/29 02:41:16;;;;;;;11.38;4.88;;;;;;;;;;5029918;28;20036;-78
2024/01/29 02:43:43;;;;;;;7.03;4.30;;;;;;;;;;5029659;28;20076;-77
2024/01/29 02:46:08;;;;;;;8.82;4.40;;;;;;;;;;5032574;28;20041;-78
2024/01/29 02:48:34;;;;;;;8.57;4.57;;;;;;;;;;5034233;28;20029;-78
2024/01/29 02:51:01;;;;;;;8.32;5.50;;;;;;;;;;5034624;28;20037;-78
2024/01/29 02:53:26;;;;;;;11.18;6.00;;;;;;;;;;5016783;28;20044;-78
2024/01/29 02:55:52;;;;;;;12.77;4.82;;;;;;;;;;5033057;28;20025;-76
2024/01/29 02:58:18;;;;;;;7.90;4.82;;;;;;;;;;5034203;28;20033;-76
2024/01/29 03:00:43;;;;;;;9.15;4.65;;;;;;;;;;5033268;28;20436;-77
2024/01/29 03:03:11;;;;;;;7.68;4.63;;;;;;;;;;5034155;28;20029;-77
2024/01/29 03:05:37;;;;;;;11.27;5.22;;;;;;;;;;5034220;28;20476;-78
2024/01/29 03:08:03;;;;;;;8.48;4.65;;;;;;;;;;5030629;28;20142;-77
2024/01/29 03:10:29;;;;;;;10.68;5.32;;;;;;;;;;5013119;28;20473;-77
2024/01/29 03:12:58;;;;;;;13.10;5.05;;;;;;;;;;5014268;28;20062;-77
2024/01/29 03:15:24;;;;;;;7.90;4.82;;;;;;;;;;5012885;28;20535;-77
2024/01/29 03:17:50;;;;;;;6.75;4.70;;;;;;;;;;5012311;28;20028;-76
2024/01/29 03:20:17;;;;;;;7.20;4.22;;;;;;;;;;5013899;28;20045;-77
2024/01/29 03:22:44;;;;;;;11.15;5.72;;;;;;;;;;5012925;28;20045;-77
2024/01/29 03:25:11;;;;;;;12.82;5.38;;;;;;;;;;5014106;28;20029;-78
2024/01/29 03:27:36;;;;;;;11.15;5.13;;;;;;;;;;5014098;28;20042;-78
2024/01/29 03:30:02;;;;;;;9.07;4.82;;;;;;;;;;5013625;28;20044;-76
2024/01/29 03:32:28;;;;;;;20.38;7.10;;;;;;;;;;5012254;28;20060;-78
2024/01/29 03:34:54;;;;;;;10.20;5.60;;;;;;;;;;5011076;28;20033;-77
2024/01/29 03:37:20;;;;;;;10.63;5.60;;;;;;;;;;5013646;28;20062;-77
2024/01/29 03:39:47;;;;;;;18.45;5.75;;;;;;;;;;5011807;28;20052;-77
2024/01/29 03:42:13;;;;;;;8.90;4.95;;;;;;;;;;5012523;28;20598;-77
2024/01/29 03:44:39;;;;;;;13.88;5.60;;;;;;;;;;5022776;28;20045;-77
2024/01/29 03:47:07;;;;;;;9.70;5.38;;;;;;;;;;4995428;28;20061;-76
2024/01/29 03:49:34;;;;;;;14.63;5.93;;;;;;;;;;5012337;28;20030;-77
2024/01/29 03:52:00;;;;;;;11.25;5.80;;;;;;;;;;5013468;28;20044;-77
2024/01/29 03:54:25;;;;;;;14.38;5.72;;;;;;;;;;5012128;28;20395;-78
2024/01/29 03:56:51;;;;;;;10.13;4.43;;;;;;;;;;5013177;28;20569;-77
2024/01/29 03:59:18;;;;;;;9.52;4.68;;;;;;;;;;5025334;28;20391;-77
2024/01/29 04:01:43;;;;;;;8.10;4.03;;;;;;;;;;5018234;28;20029;-78
2024/01/29 04:04:10;;;;;;;7.45;4.53;;;;;;;;;;5013253;28;20041;-78
2024/01/29 04:06:39;;;;;;;9.80;5.10;;;;;;;;;;5012027;28;20139;-78
2024/01/29 04:09:06;;;;;;;11.93;5.43;;;;;;;;;;5012764;28;20113;-78
2024/01/29 04:11:32;;;;;;;6.85;4.03;;;;;;;;;;5012532;28;20400;-77
2024/01/29 04:13:58;;;;;;;9.40;4.95;;;;;;;;;;4996146;28;20038;-77
2024/01/29 04:16:24;;;;;;;6.90;4.30;;;;;;;;;;5011762;28;20029;-77
2024/01/29 04:18:50;;;;;;;7.38;4.53;;;;;;;;;;5013419;28;20399;-78
2024/01/29 04:21:16;;;;;;;11.95;5.43;;;;;;;;;;5011575;28;20519;-77
2024/01/29 04:23:44;;;;;;;13.85;6.75;;;;;;;;;;5012498;28;20105;-77
2024/01/29 04:26:10;;;;;;;24.77;7.10;;;;;;;;;;5011098;28;20332;-77
2024/01/29 04:28:36;;;;;;;16.13;7.28;;;;;;;;;;5011859;28;20045;-77
2024/01/29 04:31:02;;;;;;;11.10;6.10;;;;;;;;;;5013083;28;20129;-78
2024/01/29 04:33:29;;;;;;;8.63;5.30;;;;;;;;;;5013268;28;20042;-78
2024/01/29 04:35:54;;;;;;;15.90;7.32;;;;;;;;;;5012904;28;20531;-76
2024/01/29 04:38:20;;;;;;;15.63;6.90;;;;;;;;;;5011204;28;20052;-77
2024/01/29 04:40:46;;;;;;;25.60;8.63;;;;;;;;;;5011384;28;20128;-76
2024/01/29 04:43:12;;;;;;;11.77;6.00;;;;;;;;;;5011600;28;20072;-76
2024/01/29 04:45:38;;;;;;;14.38;6.00;;;;;;;;;;5012584;28;20436;-78
2024/01/29 04:48:10;;;;;;;13.93;5.88;;;;;;;;;;5011695;28;20037;-80
2024/01/29 04:50:36;;;;;;;20.70;6.38;;;;;;;;;;5011546;28;20531;-78
2024/01/29 04:53:01;;;;;;;9.98;4.97;;;;;;;;;;5011410;28;20055;-78
2024/01/29 04:55:27;;;;;;;10.82;6.07;;;;;;;;;;5010987;28;20033;-77
2024/01/29 04:57:53;;;;;;;10.82;4.93;;;;;;;;;;5012246;28;20049;-77
2024/01/29 05:00:19;;;;;;;9.30;4.93;;;;;;;;;;4991311;28;20061;-78
2024/01/29 05:02:47;;;;;;;18.38;6.60;;;;;;;;;;5011612;28;20033;-76
2024/01/29 05:05:15;;;;;;;16.90;5.93;;;;;;;;;;5012156;28;20065;-77
2024/01/29 05:07:42;;;;;;;19.15;6.38;;;;;;;;;;5010245;28;20115;-79
2024/01/29 05:10:11;;;;;;;9.98;5.80;;;;;;;;;;5011869;28;20460;-77
2024/01/29 05:12:36;;;;;;;23.58;6.82;;;;;;;;;;5011371;28;20068;-77
2024/01/29 05:15:02;;;;;;;10.20;4.93;;;;;;;;;;5011615;28;20452;-78
2024/01/29 05:17:28;;;;;;;11.07;5.47;;;;;;;;;;5010975;28;20408;-77
2024/01/29 05:19:54;;;;;;;15.65;6.03;;;;;;;;;;5011134;28;20251;-78
2024/01/29 05:22:21;;;;;;;9.10;5.43;;;;;;;;;;5010102;28;20056;-78
2024/01/29 05:24:47;;;;;;;9.52;5.78;;;;;;;;;;5011532;28;20029;-79
2024/01/29 05:27:13;;;;;;;15.32;5.57;;;;;;;;;;5012114;28;20368;-78
2024/01/29 05:29:38;;;;;;;11.07;5.97;;;;;;;;;;5010710;28;20034;-78
2024/01/29 05:32:05;;;;;;;12.10;5.15;;;;;;;;;;5011302;28;20044;-78
2024/01/29 05:34:31;;;;;;;17.90;8.27;;;;;;;;;;5012103;28;20072;-78
2024/01/29 05:36:58;;;;;;;11.68;6.15;;;;;;;;;;5010281;28;20091;-78
2024/01/29 05:39:24;;;;;;;13.70;7.18;;;;;;;;;;5011708;28;20033;-76
2024/01/29 05:41:49;;;;;;;10.43;5.82;;;;;;;;;;5012735;28;20104;-77
2024/01/29 05:44:15;;;;;;;10.60;5.72;;;;;;;;;;4993771;28;20048;-79
2024/01/29 05:46:41;;;;;;;13.55;6.40;;;;;;;;;;5010117;28;20026;-79
2024/01/29 05:49:07;;;;;;;20.63;9.32;;;;;;;;;;5012142;28;20047;-78
2024/01/29 05:51:33;;;;;;;11.55;5.85;;;;;;;;;;5011783;28;20068;-78
2024/01/29 05:54:00;;;;;;;11.63;5.05;;;;;;;;;;5011846;28;20026;-78
2024/01/29 05:56:26;;;;;;;12.63;5.65;;;;;;;;;;5009516;28;20066;-78
2024/01/29 05:58:52;;;;;;;10.55;5.78;;;;;;;;;;5011844;28;20129;-77
2024/01/29 06:01:17;;;;;;;15.43;7.47;;;;;;;;;;5010788;28;20030;-78
2024/01/29 06:03:43;;;;;;;14.57;7.30;;;;;;;;;;5010691;28;20042;-80
2024/01/29 06:06:14;;;;;;;12.68;7.55;;;;;;;;;;5010715;28;20030;-81
2024/01/29 06:08:41;;;;;;;16.88;9.07;;;;;;;;;;5011393;28;20038;-81
2024/01/29 06:11:07;;;;;;;12.80;7.15;;;;;;;;;;5009520;28;20123;-81
2024/01/29 06:13:33;;;;;;;13.23;6.68;;;;;;;;;;5009764;28;20045;-80
2024/01/29 06:16:00;;;;;;;17.48;7.03;;;;;;;;;;5011204;28;20026;-80
2024/01/29 06:18:27;;;;;;;14.30;6.95;;;;;;;;;;5010623;28;20058;-80
2024/01/29 06:20:54;;;;;;;13.15;6.13;;;;;;;;;;5013095;28;20033;-81
2024/01/29 06:23:20;;;;;;;12.00;6.10;;;;;;;;;;5015426;28;20033;-80
2024/01/29 06:25:46;;;;;;;12.90;5.75;;;;;;;;;;5014356;28;20223;-80
2024/01/29 06:28:11;;;;;;;8.98;6.05;;;;;;;;;;5013144;28;20046;-79
2024/01/29 06:30:38;;;;;;;9.88;5.63;;;;;;;;;;5013360;28;20034;-79
2024/01/29 06:33:05;;;;;;;10.00;6.03;;;;;;;;;;5013407;28;20040;-80
2024/01/29 06:35:31;;;;;;;13.57;7.15;;;;;;;;;;5012606;28;20042;-80
2024/01/29 06:37:57;;;;;;;11.05;7.45;;;;;;;;;;4994357;28;20048;-80
2024/01/29 06:40:27;;;;;;;15.10;8.25;;;;;;;;;;5014897;28;20034;-81
2024/01/29 06:42:57;;;;;;;16.77;8.15;;;;;;;;;;5013592;28;20125;-81
2024/01/29 06:45:24;;;;;;;15.10;8.77;;;;;;;;;;5014005;28;20041;-79
2024/01/29 06:47:50;;;;;;;22.40;9.30;;;;;;;;;;5014487;28;20148;-81
2024/01/29 06:50:16;;;;;;;21.83;10.20;;;;;;;;;;5015243;28;20209;-80
2024/01/29 06:52:46;;;;;;;34.25;14.48;;;;;;;;;;5014815;28;20041;-80
2024/01/29 06:55:17;;;;;;;14.93;8.40;;;;;;;;;;5014332;28;20108;-81
2024/01/29 06:57:43;;;;;;;12.90;7.13;;;;;;;;;;5014022;28;20216;-79
2024/01/29 07:00:10;;;;;;;19.17;9.52;;;;;;;;;;5014831;28;20427;-81
2024/01/29 07:02:35;;;;;;;13.80;6.97;;;;;;;;;;5013889;28;20516;-81
2024/01/29 07:05:02;;;;;;;14.40;7.15;;;;;;;;;;5013861;28;20042;-80
2024/01/29 07:07:28;;;;;;;19.17;7.32;;;;;;;;;;5016770;28;20048;-81
2024/01/29 07:09:57;;;;;;;12.30;7.00;;;;;;;;;;5015534;28;20034;-81
2024/01/29 07:12:24;;;;;;;13.35;6.82;;;;;;;;;;5011662;28;20022;-81
2024/01/29 07:14:52;;;;;;;18.52;7.68;;;;;;;;;;5014135;28;20116;-82
2024/01/29 07:17:19;;;;;;;19.63;8.40;;;;;;;;;;4998709;28;20038;-81
2024/01/29 07:19:48;;;;;;;17.85;7.97;;;;;;;;;;5012803;28;20038;-81
2024/01/29 07:22:18;;;;;;;21.27;7.50;;;;;;;;;;5013610;28;20030;-79
2024/01/29 07:24:46;;;;;;;17.70;7.78;;;;;;;;;;5012661;28;20040;-81
2024/01/29 07:27:13;;;;;;;13.13;6.90;;;;;;;;;;5016338;28;20038;-80
2024/01/29 07:29:39;;;;;;;14.50;6.32;;;;;;;;;;5013938;28;20033;-81
2024/01/29 07:32:06;;;;;;;13.27;6.80;;;;;;;;;;5013666;28;20229;-80
2024/01/29 07:34:32;;;;;;;9.40;6.28;;;;;;;;;;4996757;28;20117;-81
2024/01/29 07:36:59;;;;;;;18.00;8.27;;;;;;;;;;5013060;28;20491;-80
2024/01/29 07:39:25;;;;;;;18.75;6.90;;;;;;;;;;5013425;28;20072;-81
2024/01/29 07:41:51;;;;;;;17.00;8.38;;;;;;;;;;5013679;28;20026;-81
2024/01/29 07:44:17;;;;;;;16.40;8.20;;;;;;;;;;5012595;28;20042;-80
2024/01/29 07:46:43;;;;;;;12.85;6.95;;;;;;;;;;5012798;28;20037;-81
2024/01/29 07:49:10;;;;;;;14.80;7.15;;;;;;;;;;4993818;28;20089;-81
2024/01/29 07:51:40;;;;;;;17.77;9.23;;;;;;;;;;5025061;28;20436;-81
2024/01/29 07:54:07;;;;;;;14.13;6.85;;;;;;;;;;5031748;28;20033;-81
2024/01/29 07:56:35;;;;;;;24.15;10.13;;;;;;;;;;5027920;28;20508;-81
2024/01/29 08:03:11;;;;;;;12.20;6.70;;;;;;;;;;5012666;28;20037;-78
2024/01/29 08:05:36;;;;;;;11.70;6.90;;;;;;;;;;5011011;28;20115;-81
2024/01/29 08:08:04;;;;;;;10.55;6.93;;;;;;;;;;5011490;28;20116;-81
2024/01/29 08:10:30;;;;;;;10.18;6.07;;;;;;;;;;5012735;28;20038;-76
2024/01/29 08:12:56;;;;;;;10.68;6.72;;;;;;;;;;5012901;28;20046;-81
2024/01/29 08:15:24;;;;;;;16.15;6.57;;;;;;;;;;5010850;28;20037;-83
2024/01/29 08:17:49;;;;;;;12.70;7.20;;;;;;;;;;5011379;28;20115;-80
2024/01/29 08:20:15;;;;;;;15.27;6.65;;;;;;;;;;5011010;28;20121;-80
2024/01/29 08:22:42;;;;;;;10.82;6.07;;;;;;;;;;5012549;28;20052;-80
2024/01/29 08:25:09;;;;;;;8.77;3.88;;;;;;;;;;5011811;28;20116;-80
2024/01/29 08:27:36;;;;;;;8.52;5.07;;;;;;;;;;5011028;28;20049;-81
2024/01/29 08:30:03;;;;;;;8.88;4.60;;;;;;;;;;4979484;28;20407;-81
2024/01/29 08:32:29;;;;;;;10.93;5.10;;;;;;;;;;5013333;28;20029;-81
2024/01/29 08:34:56;;;;;;;18.08;5.47;;;;;;;;;;5011527;28;20030;-82
2024/01/29 08:37:22;;;;;;;10.82;4.90;;;;;;;;;;5011835;28;20096;-80
2024/01/29 08:39:48;;;;;;;11.27;6.10;;;;;;;;;;4994122;28;20136;-81
2024/01/29 08:42:15;;;;;;;9.32;4.80;;;;;;;;;;5010420;28;20062;-81
2024/01/29 08:44:41;;;;;;;6.57;3.85;;;;;;;;;;5011005;28;20060;-80
2024/01/29 08:47:07;;;;;;;8.13;4.15;;;;;;;;;;5010865;28;20069;-79
2024/01/29 08:49:33;;;;;;;5.53;2.83;;;;;;;;;;5011730;28;20041;-81
2024/01/29 08:51:59;;;;;;;7.18;2.60;;;;;;;;;;5010071;28;20448;-79
2024/01/29 08:54:27;;;;;;;6.03;3.05;;;;;;;;;;5011583;28;20065;-81
2024/01/29 08:56:54;;;;;;;5.25;2.88;;;;;;;;;;5011796;28;20408;-81
2024/01/29 08:59:21;;;;;;;8.32;3.58;;;;;;;;;;5012212;28;20022;-81
2024/01/29 09:01:47;;;;;;;10.80;3.58;;;;;;;;;;5010967;28;20168;-81
2024/01/29 09:04:14;;;;;;;5.05;3.22;;;;;;;;;;5011651;28;20200;-81
2024/01/29 09:06:41;;;;;;;6.25;2.78;;;;;;;;;;5011404;28;20030;-81
2024/01/29 09:09:07;;;;;;;4.50;2.80;;;;;;;;;;5011954;28;20160;-81
2024/01/29 09:11:34;;;;;;;5.22;2.80;;;;;;;;;;5011936;28;20076;-80
2024/01/29 09:14:01;;;;;;;4.30;2.53;;;;;;;;;;5011907;28;20487;-80
2024/01/29 09:16:27;;;;;;;4.85;3.00;;;;;;;;;;5011681;28;20097;-80
2024/01/29 09:18:53;;;;;;;5.47;3.08;;;;;;;;;;5009861;28;20033;-81
2024/01/29 09:21:19;;;;;;;5.20;2.60;;;;;;;;;;5011301;28;20026;-81
2024/01/29 09:23:45;;;;;;;7.57;3.35;;;;;;;;;;4994124;28;20058;-80
2024/01/29 09:26:11;;;;;;;5.55;3.30;;;;;;;;;;5011714;28;20057;-79
2024/01/29 09:28:40;;;;;;;7.40;2.63;;;;;;;;;;5012113;28;20053;-80
2024/01/29 09:31:06;;;;;;;13.43;2.95;;;;;;;;;;5010940;28;20037;-79
2024/01/29 09:33:32;;;;;;;4.22;3.00;;;;;;;;;;5011352;28;20034;-82
2024/01/29 09:36:02;;;;;;;4.30;2.28;;;;;;;;;;5011078;28;20217;-82
2024/01/29 09:38:29;;;;;;;4.57;2.67;;;;;;;;;;5012576;28;20432;-82
2024/01/29 09:40:57;;;;;;;7.63;3.53;;;;;;;;;;5011053;28;20109;-80
2024/01/29 09:43:26;;;;;;;8.27;3.40;;;;;;;;;;5011197;28;20499;-80
2024/01/29 09:45:54;;;;;;;7.32;3.72;;;;;;;;;;5014978;28;20049;-80
2024/01/29 09:48:24;;;;;;;5.97;3.13;;;;;;;;;;5010407;28;20060;-79
2024/01/29 09:50:51;;;;;;;5.53;3.25;;;;;;;;;;4993403;28;20041;-81
2024/01/29 09:53:21;;;;;;;8.02;3.35;;;;;;;;;;4993633;28;20099;-81
2024/01/29 09:55:48;;;;;;;4.28;3.10;;;;;;;;;;5013800;28;20065;-79
2024/01/29 09:58:15;;;;;;;5.32;2.72;;;;;;;;;;5013950;28;20037;-82
2024/01/29 10:00:41;;;;;;;5.45;3.10;;;;;;;;;;5014382;28;20038;-82
2024/01/29 10:03:15;;;;;;;5.45;3.05;;;;;;;;;;5014557;28;20045;-80
2024/01/29 10:05:43;;;;;;;4.53;3.13;;;;;;;;;;5014915;28;20061;-82
2024/01/29 10:08:11;;;;;;;5.90;3.00;;;;;;;;;;4998072;28;20125;-82
2024/01/29 10:10:38;;;;;;;6.78;3.28;;;;;;;;;;5015943;28;20214;-81
2024/01/29 10:13:09;;;;;;;6.53;3.63;;;;;;;;;;5015922;28;20030;-80
2024/01/29 10:15:35;;;;;;;4.75;2.60;;;;;;;;;;5013330;28;20061;-81
2024/01/29 10:18:07;;;;;;;4.72;2.50;;;;;;;;;;5013977;28;20471;-82
2024/01/29 10:20:33;;;;;;;4.85;3.13;;;;;;;;;;5013546;28;20066;-82
2024/01/29 10:22:59;;;;;;;7.97;2.75;;;;;;;;;;5012459;28;20396;-81
2024/01/29 10:25:28;;;;;;;10.10;3.10;;;;;;;;;;5014850;28;20363;-80
2024/01/29 10:28:04;;;;;;;11.48;2.72;;;;;;;;;;5014394;28;20048;-80
2024/01/29 10:30:31;;;;;;;4.15;2.63;;;;;;;;;;5014435;28;20113;-79
2024/01/29 10:32:56;;;;;;;3.80;2.10;;;;;;;;;;4997965;28;20133;-81
2024/01/29 10:35:22;;;;;;;6.50;2.92;;;;;;;;;;5014823;28;20113;-81
2024/01/29 10:37:48;;;;;;;3.78;2.33;;;;;;;;;;5014765;28;20025;-80
2024/01/29 10:40:16;;;;;;;4.35;2.70;;;;;;;;;;5012781;28;20551;-80
2024/01/29 10:42:46;;;;;;;5.97;2.60;;;;;;;;;;5012532;28;20419;-82
2024/01/29 10:45:17;;;;;;;7.10;3.17;;;;;;;;;;5013898;28;20064;-80
2024/01/29 10:47:50;;;;;;;3.13;2.10;;;;;;;;;;5012584;28;20038;-80
2024/01/29 10:50:19;;;;;;;5.40;2.95;;;;;;;;;;5014082;28;20041;-81
2024/01/29 10:52:49;;;;;;;5.28;2.33;;;;;;;;;;4996524;28;20042;-81
2024/01/29 10:55:16;;;;;;;6.05;3.30;;;;;;;;;;5013236;28;20030;-81
2024/01/29 10:57:47;;;;;;;4.28;2.58;;;;;;;;;;5012861;28;20021;-82
2024/01/29 11:00:17;;;;;;;4.88;2.55;;;;;;;;;;5012863;28;20308;-79
2024/01/29 11:02:44;;;;;;;4.82;2.65;;;;;;;;;;5014014;28;20030;-80
2024/01/29 11:05:12;;;;;;;5.82;2.60;;;;;;;;;;5012365;28;20111;-81
2024/01/29 11:07:41;;;;;;;4.93;3.83;;;;;;;;;;5013619;28;20037;-80
2024/01/29 11:10:18;;;;;;;4.30;2.72;;;;;;;;;;5014317;28;20475;-81
2024/01/29 11:12:49;;;;;;;6.43;3.08;;;;;;;;;;5012550;28;20044;-81
2024/01/29 11:15:16;;;;;;;5.28;2.72;;;;;;;;;;5013354;28;20095;-81
2024/01/29 11:17:42;;;;;;;4.95;2.65;;;;;;;;;;5013143;28;20034;-81
2024/01/29 11:20:14;;;;;;;6.70;2.80;;;;;;;;;;5012775;28;20037;-81
2024/01/29 11:22:41;;;;;;;4.07;2.40;;;;;;;;;;4996002;28;20038;-83
2024/01/29 11:25:15;;;;;;;4.10;2.30;;;;;;;;;;5012715;28;20030;-81
2024/01/29 11:27:44;;;;;;;4.78;2.60;;;;;;;;;;5016678;28;20403;-80
2024/01/29 11:30:16;;;;;;;4.75;2.40;;;;;;;;;;5012457;28;20180;-81
2024/01/29 11:32:42;;;;;;;4.22;2.40;;;;;;;;;;5013833;28;20041;-82
2024/01/29 11:35:14;;;;;;;2.83;1.98;;;;;;;;;;5012387;28;20022;-82
2024/01/29 11:37:42;;;;;;;6.80;2.83;;;;;;;;;;5011762;28;20053;-81
2024/01/29 11:40:32;;;;;;;3.53;2.20;;;;;;;;;;5012768;28;20525;-81
2024/01/29 11:43:11;;;;;;;5.75;3.05;;;;;;;;;;5011254;28;20412;-81
2024/01/29 11:45:39;;;;;;;5.60;2.80;;;;;;;;;;4994212;28;20050;-81
2024/01/29 11:48:12;;;;;;;6.85;2.75;;;;;;;;;;4994362;28;20039;-81
2024/01/29 11:50:43;;;;;;;7.05;2.90;;;;;;;;;;4994224;28;20036;-82
2024/01/29 11:53:11;;;;;;;4.05;2.60;;;;;;;;;;4994049;28;20141;-81
2024/01/29 11:55:40;;;;;;;4.65;1.90;;;;;;;;;;4991392;28;20038;-81
2024/01/29 11:58:14;;;;;;;5.90;3.03;;;;;;;;;;4993197;28;20463;-80
2024/01/29 12:00:43;;;;;;;5.15;3.13;;;;;;;;;;4994748;28;20069;-81
2024/01/29 12:03:21;;;;;;;6.03;2.50;;;;;;;;;;4994002;28;20153;-82
2024/01/29 12:05:47;;;;;;;9.57;2.85;;;;;;;;;;4960605;28;20042;-80
2024/01/29 12:08:16;;;;;;;5.00;2.97;;;;;;;;;;4994314;28;20050;-81
2024/01/29 12:10:44;;;;;;;3.45;1.83;;;;;;;;;;4992668;28;20050;-81
2024/01/29 12:13:19;;;;;;;2.35;1.48;;;;;;;;;;4992530;28;20056;-80
2024/01/29 12:15:48;;;;;;;6.57;3.38;;;;;;;;;;4994740;28;20034;-80
2024/01/29 12:18:24;;;;;;;5.00;2.58;;;;;;;;;;4994931;28;20524;-81
2024/01/29 12:20:51;;;;;;;6.07;3.03;;;;;;;;;;4993663;28;20373;-82
2024/01/29 12:23:18;;;;;;;3.67;2.25;;;;;;;;;;4995404;28;20053;-82
2024/01/29 12:25:47;;;;;;;3.85;2.10;;;;;;;;;;4994014;28;20046;-80
2024/01/29 12:28:15;;;;;;;5.03;2.45;;;;;;;;;;4992870;28;20045;-82
2024/01/29 12:31:14;;;;;;;10.50;2.88;;;;;;;;;;4993764;28;20041;-80
2024/01/29 12:33:48;;;;;;;4.20;2.33;;;;;;;;;;4972120;28;20420;-79
2024/01/29 12:36:17;;;;;;;4.85;2.80;;;;;;;;;;4993566;28;20058;-82
2024/01/29 12:38:57;;;;;;;8.13;2.90;;;;;;;;;;4991987;28;20064;-83
2024/01/29 12:41:24;;;;;;;4.93;2.50;;;;;;;;;;4975931;28;20570;-82
2024/01/29 12:43:55;;;;;;;6.72;2.50;;;;;;;;;;4992045;28;20061;-81
2024/01/29 12:46:22;;;;;;;11.02;2.53;;;;;;;;;;4995852;28;20117;-82
2024/01/29 12:48:48;;;;;;;3.42;2.35;;;;;;;;;;4992211;28;20476;-82
2024/01/29 12:51:18;;;;;;;4.68;2.70;;;;;;;;;;4993202;28;20049;-81
2024/01/29 12:53:55;;;;;;;5.38;3.13;;;;;;;;;;4993529;28;20057;-81
2024/01/29 12:56:22;;;;;;;5.25;3.08;;;;;;;;;;4992557;28;20030;-83
2024/01/29 12:58:48;;;;;;;5.22;3.60;;;;;;;;;;4992810;28;20030;-80
2024/01/29 13:01:16;;;;;;;6.78;2.97;;;;;;;;;;4992020;28;20041;-81
2024/01/29 13:03:46;;;;;;;7.63;3.53;;;;;;;;;;4992490;28;20144;-81
2024/01/29 13:06:12;;;;;;;11.95;5.97;;;;;;;;;;4993742;28;20038;-82
2024/01/29 13:08:38;;;;;;;4.47;2.70;;;;;;;;;;4994611;28;20120;-80
2024/01/29 13:11:04;;;;;;;9.60;4.18;;;;;;;;;;5003333;28;20069;-80
2024/01/29 13:13:32;;;;;;;8.75;4.32;;;;;;;;;;4993880;28;20026;-82
2024/01/29 13:16:00;;;;;;;7.05;4.47;;;;;;;;;;4992652;28;20058;-82
2024/01/29 13:18:29;;;;;;;8.68;4.05;;;;;;;;;;4991864;28;20113;-79
2024/01/29 13:20:58;;;;;;;9.68;4.32;;;;;;;;;;4968743;28;20038;-82
2024/01/29 13:23:25;;;;;;;5.57;3.13;;;;;;;;;;4991670;28;20041;-81
2024/01/29 13:25:51;;;;;;;4.78;3.40;;;;;;;;;;4992072;28;20026;-82
2024/01/29 13:28:18;;;;;;;6.55;4.20;;;;;;;;;;4997037;28;20034;-80
2024/01/29 13:30:47;;;;;;;5.00;2.20;;;;;;;;;;5009321;28;20045;-80
2024/01/29 13:33:13;;;;;;;3.97;1.80;;;;;;;;;;5010777;28;20038;-81
2024/01/29 13:35:40;;;;;;;4.95;2.33;;;;;;;;;;5011806;28;20109;-83
2024/01/29 13:38:06;;;;;;;3.50;2.03;;;;;;;;;;5010555;28;20038;-81
2024/01/29 13:40:36;;;;;;;8.30;3.22;;;;;;;;;;5011392;28;20046;-81
2024/01/29 13:43:03;;;;;;;7.43;3.25;;;;;;;;;;5011564;28;20046;-80
2024/01/29 13:45:30;;;;;;;5.82;2.40;;;;;;;;;;5012250;28;20030;-80
2024/01/29 13:47:55;;;;;;;6.80;4.00;;;;;;;;;;5010598;28;20068;-82
2024/01/29 13:50:22;;;;;;;5.32;2.80;;;;;;;;;;5001616;28;32647;-83
2024/01/29 13:52:50;;;;;;;7.40;3.58;;;;;;;;;;5010145;28;20042;-83
2024/01/29 13:55:17;;;;;;;6.28;3.80;;;;;;;;;;5011366;28;20472;-83
2024/01/29 13:57:44;;;;;;;5.28;3.22;;;;;;;;;;4992125;28;20044;-81
2024/01/29 14:00:13;;;;;;;5.90;3.50;;;;;;;;;;4994217;28;20065;-83
2024/01/29 14:02:40;;;;;;;7.93;4.63;;;;;;;;;;4995689;28;20057;-83
2024/01/29 14:05:06;;;;;;;5.30;3.33;;;;;;;;;;4993382;28;20030;-80
2024/01/29 14:07:36;;;;;;;14.15;3.88;;;;;;;;;;5009343;28;20153;-83
2024/01/29 14:10:03;;;;;;;5.82;3.28;;;;;;;;;;5009851;28;20607;-82
2024/01/29 14:12:29;;;;;;;5.35;2.80;;;;;;;;;;5009318;28;20065;-82
2024/01/29 14:14:56;;;;;;;8.45;4.05;;;;;;;;;;5010943;28;20049;-78
2024/01/29 14:17:24;;;;;;;10.35;4.00;;;;;;;;;;5011097;28;20042;-83
2024/01/29 14:19:51;;;;;;;9.07;3.83;;;;;;;;;;5002509;28;20036;-81
2024/01/29 14:22:25;;;;;;;6.50;3.65;;;;;;;;;;5010092;28;20384;-82
2024/01/29 14:24:52;;;;;;;6.63;3.65;;;;;;;;;;5011037;28;20045;-82
2024/01/29 14:27:18;;;;;;;5.78;3.65;;;;;;;;;;5009207;28;20073;-81
2024/01/29 14:29:43;;;;;;;7.95;3.85;;;;;;;;;;5005921;28;20414;-80
2024/01/29 14:32:11;;;;;;;6.93;3.20;;;;;;;;;;5008820;28;20211;-81
2024/01/29 14:34:40;;;;;;;5.38;3.00;;;;;;;;;;5007707;28;20084;-77
2024/01/29 14:37:06;;;;;;;4.55;2.75;;;;;;;;;;5006420;28;20136;-80
2024/01/29 14:39:36;;;;;;;6.90;3.75;;;;;;;;;;5013626;28;20035;-82